sensor_id;sensor_type;location;lat;lon;timestamp;P1;durP1;ratioP1;P2;durP2;ratioP2
41514;SDS011;27247;48.020;16.720;2023-05-08T00:02:41;17.00;;;12.13;;
41514;SDS011;27247;48.020;16.720;2023-05-08T00:06:51;19.25;;;13.52;;
41514;SDS011;27247;48.020;16.720;2023-05-08T00:11:02;19.40;;;13.05;;
41514;SDS011;27247;48.020;16.720;2023-05-08T00:15:12;20.65;;;13.77;;
41514;SDS011;27247;48.020;16.720;2023-05-08T00:19:22;18.50;;;13.20;;
41514;SDS011;27247;48.020;16.720;2023-05-08T00:23:33;20.37;;;13.83;;
41514;SDS011;27247;48.020;16.720;2023-05-08T00:27:43;25.15;;;14.35;;
41514;SDS011;27247;48.020;16.720;2023-05-08T00:31:53;19.73;;;14.00;;
41514;SDS011;27247;48.020;16.720;2023-05-08T00:36:04;18.23;;;12.77;;
41514;SDS011;27247;48.020;16.720;2023-05-08T00:40:14;20.70;;;13.77;;
41514;SDS011;27247;48.020;16.720;2023-05-08T00:44:25;20.98;;;14.52;;
41514;SDS011;27247;48.020;16.720;2023-05-08T00:48:35;20.02;;;13.52;;
41514;SDS011;27247;48.020;16.720;2023-05-08T00:52:48;20.02;;;14.13;;
41514;SDS011;27247;48.020;16.720;2023-05-08T00:56:59;22.95;;;15.23;;
41514;SDS011;27247;48.020;16.720;2023-05-08T01:01:10;25.88;;;15.75;;
41514;SDS011;27247;48.020;16.720;2023-05-08T01:05:20;34.08;;;15.65;;
41514;SDS011;27247;48.020;16.720;2023-05-08T01:09:30;22.83;;;15.05;;
41514;SDS011;27247;48.020;16.720;2023-05-08T01:13:50;24.33;;;15.10;;
41514;SDS011;27247;48.020;16.720;2023-05-08T01:18:12;27.33;;;18.30;;
41514;SDS011;27247;48.020;16.720;2023-05-08T01:40:34;23.08;;;14.98;;
41514;SDS011;27247;48.020;16.720;2023-05-08T01:44:56;21.33;;;14.43;;
41514;SDS011;27247;48.020;16.720;2023-05-08T01:49:11;19.67;;;12.90;;
41514;SDS011;27247;48.020;16.720;2023-05-08T01:53:33;19.90;;;13.85;;
41514;SDS011;27247;48.020;16.720;2023-05-08T01:57:48;22.77;;;14.30;;
41514;SDS011;27247;48.020;16.720;2023-05-08T02:02:02;23.38;;;13.75;;
41514;SDS011;27247;48.020;16.720;2023-05-08T02:06:15;21.33;;;13.68;;
41514;SDS011;27247;48.020;16.720;2023-05-08T02:10:29;21.65;;;15.02;;
41514;SDS011;27247;48.020;16.720;2023-05-08T02:14:40;26.67;;;16.60;;
41514;SDS011;27247;48.020;16.720;2023-05-08T02:18:52;26.40;;;16.33;;
41514;SDS011;27247;48.020;16.720;2023-05-08T02:23:04;25.17;;;16.30;;
41514;SDS011;27247;48.020;16.720;2023-05-08T02:27:15;23.52;;;16.00;;
41514;SDS011;27247;48.020;16.720;2023-05-08T02:31:26;22.48;;;15.07;;
41514;SDS011;27247;48.020;16.720;2023-05-08T02:35:39;22.65;;;15.10;;
41514;SDS011;27247;48.020;16.720;2023-05-08T02:39:52;24.40;;;16.50;;
41514;SDS011;27247;48.020;16.720;2023-05-08T02:44:07;25.27;;;15.98;;
41514;SDS011;27247;48.020;16.720;2023-05-08T02:48:22;22.90;;;15.02;;
41514;SDS011;27247;48.020;16.720;2023-05-08T02:52:44;24.02;;;15.50;;
41514;SDS011;27247;48.020;16.720;2023-05-08T02:57:05;23.35;;;15.85;;
41514;SDS011;27247;48.020;16.720;2023-05-08T03:01:26;21.58;;;13.23;;
41514;SDS011;27247;48.020;16.720;2023-05-08T03:05:43;23.27;;;15.02;;
41514;SDS011;27247;48.020;16.720;2023-05-08T03:10:01;25.98;;;15.35;;
41514;SDS011;27247;48.020;16.720;2023-05-08T03:14:15;23.90;;;15.73;;
41514;SDS011;27247;48.020;16.720;2023-05-08T03:18:31;25.58;;;15.30;;
41514;SDS011;27247;48.020;16.720;2023-05-08T03:22:50;23.52;;;15.23;;
41514;SDS011;27247;48.020;16.720;2023-05-08T03:27:03;24.48;;;15.95;;
41514;SDS011;27247;48.020;16.720;2023-05-08T03:31:15;23.65;;;14.93;;
41514;SDS011;27247;48.020;16.720;2023-05-08T03:35:28;22.38;;;15.32;;
41514;SDS011;27247;48.020;16.720;2023-05-08T03:39:40;23.63;;;15.13;;
41514;SDS011;27247;48.020;16.720;2023-05-08T03:43:51;23.30;;;14.77;;
41514;SDS011;27247;48.020;16.720;2023-05-08T03:48:06;25.15;;;14.65;;
41514;SDS011;27247;48.020;16.720;2023-05-08T03:52:17;21.02;;;14.07;;
41514;SDS011;27247;48.020;16.720;2023-05-08T03:56:28;21.70;;;13.07;;
41514;SDS011;27247;48.020;16.720;2023-05-08T04:05:03;21.55;;;13.48;;
41514;SDS011;27247;48.020;16.720;2023-05-08T04:09:23;20.85;;;13.35;;
41514;SDS011;27247;48.020;16.720;2023-05-08T04:13:45;19.35;;;12.45;;
41514;SDS011;27247;48.020;16.720;2023-05-08T04:18:07;23.17;;;13.32;;
41514;SDS011;27247;48.020;16.720;2023-05-08T04:22:19;18.80;;;12.50;;
41514;SDS011;27247;48.020;16.720;2023-05-08T04:26:34;22.17;;;10.63;;
41514;SDS011;27247;48.020;16.720;2023-05-08T04:30:45;15.75;;;11.10;;
41514;SDS011;27247;48.020;16.720;2023-05-08T04:34:56;19.45;;;11.50;;
41514;SDS011;27247;48.020;16.720;2023-05-08T04:39:08;18.75;;;11.75;;
41514;SDS011;27247;48.020;16.720;2023-05-08T04:43:18;18.03;;;11.47;;
41514;SDS011;27247;48.020;16.720;2023-05-08T04:47:28;16.85;;;10.95;;
41514;SDS011;27247;48.020;16.720;2023-05-08T04:51:39;18.07;;;11.83;;
41514;SDS011;27247;48.020;16.720;2023-05-08T04:55:49;15.75;;;11.05;;
41514;SDS011;27247;48.020;16.720;2023-05-08T04:59:59;19.80;;;11.33;;
41514;SDS011;27247;48.020;16.720;2023-05-08T05:04:10;20.03;;;12.43;;
41514;SDS011;27247;48.020;16.720;2023-05-08T05:08:20;19.30;;;11.43;;
41514;SDS011;27247;48.020;16.720;2023-05-08T05:12:30;17.27;;;11.40;;
41514;SDS011;27247;48.020;16.720;2023-05-08T05:16:40;19.43;;;11.53;;
41514;SDS011;27247;48.020;16.720;2023-05-08T05:20:51;21.17;;;11.90;;
41514;SDS011;27247;48.020;16.720;2023-05-08T05:25:01;17.87;;;12.13;;
41514;SDS011;27247;48.020;16.720;2023-05-08T05:29:11;17.77;;;11.27;;
41514;SDS011;27247;48.020;16.720;2023-05-08T05:33:22;17.27;;;11.48;;
41514;SDS011;27247;48.020;16.720;2023-05-08T05:37:32;16.17;;;11.00;;
41514;SDS011;27247;48.020;16.720;2023-05-08T05:41:42;16.80;;;11.30;;
41514;SDS011;27247;48.020;16.720;2023-05-08T05:45:53;17.50;;;11.35;;
41514;SDS011;27247;48.020;16.720;2023-05-08T05:50:05;17.73;;;10.82;;
41514;SDS011;27247;48.020;16.720;2023-05-08T05:54:15;17.23;;;10.98;;
41514;SDS011;27247;48.020;16.720;2023-05-08T05:58:26;17.33;;;11.65;;
41514;SDS011;27247;48.020;16.720;2023-05-08T06:02:37;17.13;;;11.45;;
41514;SDS011;27247;48.020;16.720;2023-05-08T06:06:48;15.88;;;11.10;;
41514;SDS011;27247;48.020;16.720;2023-05-08T06:10:58;15.83;;;11.10;;
41514;SDS011;27247;48.020;16.720;2023-05-08T06:15:09;14.90;;;10.00;;
41514;SDS011;27247;48.020;16.720;2023-05-08T06:19:19;15.75;;;10.45;;
41514;SDS011;27247;48.020;16.720;2023-05-08T06:23:30;18.33;;;10.37;;
41514;SDS011;27247;48.020;16.720;2023-05-08T06:27:40;14.13;;;10.35;;
41514;SDS011;27247;48.020;16.720;2023-05-08T06:31:51;16.23;;;10.70;;
41514;SDS011;27247;48.020;16.720;2023-05-08T06:36:02;14.70;;;10.20;;
41514;SDS011;27247;48.020;16.720;2023-05-08T06:40:13;15.05;;;10.55;;
41514;SDS011;27247;48.020;16.720;2023-05-08T06:44:24;15.45;;;10.55;;
41514;SDS011;27247;48.020;16.720;2023-05-08T06:48:34;17.08;;;9.48;;
41514;SDS011;27247;48.020;16.720;2023-05-08T06:52:45;15.82;;;9.48;;
41514;SDS011;27247;48.020;16.720;2023-05-08T06:56:55;14.80;;;9.97;;
41514;SDS011;27247;48.020;16.720;2023-05-08T07:01:05;13.50;;;9.38;;
41514;SDS011;27247;48.020;16.720;2023-05-08T07:05:16;15.27;;;10.37;;
41514;SDS011;27247;48.020;16.720;2023-05-08T07:09:26;15.68;;;9.40;;
41514;SDS011;27247;48.020;16.720;2023-05-08T07:13:37;12.50;;;9.73;;
41514;SDS011;27247;48.020;16.720;2023-05-08T07:17:48;12.57;;;9.48;;
41514;SDS011;27247;48.020;16.720;2023-05-08T07:21:58;17.60;;;9.97;;
41514;SDS011;27247;48.020;16.720;2023-05-08T07:26:09;12.68;;;8.88;;
41514;SDS011;27247;48.020;16.720;2023-05-08T07:30:20;13.20;;;9.48;;
41514;SDS011;27247;48.020;16.720;2023-05-08T07:34:31;12.63;;;9.10;;
41514;SDS011;27247;48.020;16.720;2023-05-08T07:38:42;11.95;;;8.15;;
41514;SDS011;27247;48.020;16.720;2023-05-08T07:42:53;14.05;;;8.88;;
41514;SDS011;27247;48.020;16.720;2023-05-08T07:47:03;10.75;;;8.02;;
41514;SDS011;27247;48.020;16.720;2023-05-08T07:51:14;10.75;;;8.00;;
41514;SDS011;27247;48.020;16.720;2023-05-08T07:55:24;11.65;;;8.13;;
41514;SDS011;27247;48.020;16.720;2023-05-08T07:59:34;11.10;;;7.95;;
41514;SDS011;27247;48.020;16.720;2023-05-08T08:03:45;10.33;;;7.67;;
41514;SDS011;27247;48.020;16.720;2023-05-08T08:07:55;11.10;;;7.85;;
41514;SDS011;27247;48.020;16.720;2023-05-08T08:12:05;12.50;;;8.50;;
41514;SDS011;27247;48.020;16.720;2023-05-08T08:16:16;10.82;;;8.02;;
41514;SDS011;27247;48.020;16.720;2023-05-08T08:20:26;13.80;;;7.57;;
41514;SDS011;27247;48.020;16.720;2023-05-08T08:24:36;13.35;;;7.88;;
41514;SDS011;27247;48.020;16.720;2023-05-08T08:28:47;12.63;;;8.07;;
41514;SDS011;27247;48.020;16.720;2023-05-08T08:32:57;13.50;;;7.43;;
41514;SDS011;27247;48.020;16.720;2023-05-08T08:37:11;8.88;;;6.85;;
41514;SDS011;27247;48.020;16.720;2023-05-08T08:41:21;9.60;;;6.80;;
41514;SDS011;27247;48.020;16.720;2023-05-08T08:45:32;11.07;;;7.80;;
41514;SDS011;27247;48.020;16.720;2023-05-08T08:49:45;11.00;;;8.50;;
41514;SDS011;27247;48.020;16.720;2023-05-08T08:54:08;11.57;;;7.50;;
41514;SDS011;27247;48.020;16.720;2023-05-08T09:02:36;8.75;;;6.90;;
41514;SDS011;27247;48.020;16.720;2023-05-08T09:06:46;10.18;;;7.22;;
41514;SDS011;27247;48.020;16.720;2023-05-08T09:10:59;12.70;;;7.78;;
41514;SDS011;27247;48.020;16.720;2023-05-08T09:15:11;11.85;;;6.97;;
41514;SDS011;27247;48.020;16.720;2023-05-08T09:19:21;12.07;;;7.75;;
41514;SDS011;27247;48.020;16.720;2023-05-08T09:23:34;11.25;;;6.45;;
41514;SDS011;27247;48.020;16.720;2023-05-08T09:27:45;8.32;;;6.43;;
41514;SDS011;27247;48.020;16.720;2023-05-08T09:31:55;8.63;;;6.50;;
41514;SDS011;27247;48.020;16.720;2023-05-08T09:36:06;10.33;;;7.20;;
41514;SDS011;27247;48.020;16.720;2023-05-08T09:40:34;8.20;;;6.80;;
41514;SDS011;27247;48.020;16.720;2023-05-08T09:44:49;10.65;;;6.18;;
41514;SDS011;27247;48.020;16.720;2023-05-08T09:49:03;8.67;;;5.53;;
41514;SDS011;27247;48.020;16.720;2023-05-08T09:53:13;8.32;;;5.93;;
41514;SDS011;27247;48.020;16.720;2023-05-08T09:57:28;7.72;;;6.10;;
41514;SDS011;27247;48.020;16.720;2023-05-08T10:01:40;8.60;;;5.75;;
41514;SDS011;27247;48.020;16.720;2023-05-08T10:05:50;8.50;;;6.03;;
41514;SDS011;27247;48.020;16.720;2023-05-08T10:10:04;7.30;;;6.57;;
41514;SDS011;27247;48.020;16.720;2023-05-08T10:14:16;7.70;;;6.15;;
41514;SDS011;27247;48.020;16.720;2023-05-08T10:18:27;6.57;;;5.68;;
41514;SDS011;27247;48.020;16.720;2023-05-08T10:22:40;13.43;;;5.40;;
41514;SDS011;27247;48.020;16.720;2023-05-08T10:27:37;8.25;;;6.38;;
41514;SDS011;27247;48.020;16.720;2023-05-08T10:31:28;7.65;;;5.53;;
41514;SDS011;27247;48.020;16.720;2023-05-08T10:35:43;10.68;;;5.78;;
41514;SDS011;27247;48.020;16.720;2023-05-08T10:39:54;6.53;;;5.65;;
41514;SDS011;27247;48.020;16.720;2023-05-08T10:44:07;6.72;;;5.63;;
41514;SDS011;27247;48.020;16.720;2023-05-08T10:48:30;6.75;;;5.40;;
41514;SDS011;27247;48.020;16.720;2023-05-08T10:53:06;7.68;;;5.60;;
41514;SDS011;27247;48.020;16.720;2023-05-08T11:02:27;7.70;;;5.28;;
41514;SDS011;27247;48.020;16.720;2023-05-08T11:06:42;7.18;;;5.68;;
41514;SDS011;27247;48.020;16.720;2023-05-08T11:15:11;12.70;;;6.53;;
41514;SDS011;27247;48.020;16.720;2023-05-08T11:19:22;5.70;;;5.10;;
41514;SDS011;27247;48.020;16.720;2023-05-08T11:23:36;5.80;;;4.60;;
41514;SDS011;27247;48.020;16.720;2023-05-08T11:31:57;6.78;;;5.10;;
41514;SDS011;27247;48.020;16.720;2023-05-08T11:36:11;6.43;;;5.60;;
41514;SDS011;27247;48.020;16.720;2023-05-08T11:45:07;6.70;;;4.93;;
41514;SDS011;27247;48.020;16.720;2023-05-08T11:49:20;7.43;;;5.70;;
41514;SDS011;27247;48.020;16.720;2023-05-08T11:53:33;9.38;;;5.13;;
41514;SDS011;27247;48.020;16.720;2023-05-08T11:57:45;5.93;;;5.13;;
41514;SDS011;27247;48.020;16.720;2023-05-08T12:01:55;6.67;;;4.90;;
41514;SDS011;27247;48.020;16.720;2023-05-08T12:06:06;6.27;;;5.13;;
41514;SDS011;27247;48.020;16.720;2023-05-08T12:10:16;7.32;;;5.63;;
41514;SDS011;27247;48.020;16.720;2023-05-08T12:14:26;6.55;;;5.60;;
41514;SDS011;27247;48.020;16.720;2023-05-08T12:18:37;6.10;;;5.05;;
41514;SDS011;27247;48.020;16.720;2023-05-08T12:22:51;10.63;;;4.90;;
41514;SDS011;27247;48.020;16.720;2023-05-08T12:27:02;6.05;;;5.22;;
41514;SDS011;27247;48.020;16.720;2023-05-08T12:31:12;8.93;;;5.53;;
41514;SDS011;27247;48.020;16.720;2023-05-08T12:35:23;7.07;;;5.15;;
41514;SDS011;27247;48.020;16.720;2023-05-08T12:39:34;11.43;;;5.15;;
41514;SDS011;27247;48.020;16.720;2023-05-08T12:43:45;8.30;;;4.95;;
41514;SDS011;27247;48.020;16.720;2023-05-08T12:47:57;5.82;;;4.45;;
41514;SDS011;27247;48.020;16.720;2023-05-08T12:52:11;6.57;;;5.88;;
41514;SDS011;27247;48.020;16.720;2023-05-08T12:56:22;8.95;;;4.55;;
41514;SDS011;27247;48.020;16.720;2023-05-08T13:00:33;6.37;;;4.80;;
41514;SDS011;27247;48.020;16.720;2023-05-08T13:04:45;6.50;;;4.70;;
41514;SDS011;27247;48.020;16.720;2023-05-08T13:08:56;5.00;;;4.40;;
41514;SDS011;27247;48.020;16.720;2023-05-08T13:13:06;8.95;;;5.30;;
41514;SDS011;27247;48.020;16.720;2023-05-08T13:17:17;8.23;;;4.70;;
41514;SDS011;27247;48.020;16.720;2023-05-08T13:21:28;5.88;;;4.22;;
41514;SDS011;27247;48.020;16.720;2023-05-08T13:25:38;7.37;;;4.57;;
41514;SDS011;27247;48.020;16.720;2023-05-08T13:29:49;8.02;;;5.47;;
41514;SDS011;27247;48.020;16.720;2023-05-08T13:34:00;8.60;;;4.13;;
41514;SDS011;27247;48.020;16.720;2023-05-08T13:38:10;4.90;;;4.40;;
41514;SDS011;27247;48.020;16.720;2023-05-08T13:42:20;4.87;;;4.03;;
41514;SDS011;27247;48.020;16.720;2023-05-08T13:46:31;5.47;;;4.70;;
41514;SDS011;27247;48.020;16.720;2023-05-08T13:50:41;5.23;;;4.23;;
41514;SDS011;27247;48.020;16.720;2023-05-08T13:54:51;4.87;;;4.27;;
41514;SDS011;27247;48.020;16.720;2023-05-08T13:59:01;4.20;;;3.70;;
41514;SDS011;27247;48.020;16.720;2023-05-08T14:03:12;4.57;;;3.63;;
41514;SDS011;27247;48.020;16.720;2023-05-08T14:07:22;6.27;;;3.70;;
41514;SDS011;27247;48.020;16.720;2023-05-08T14:11:32;4.50;;;3.60;;
41514;SDS011;27247;48.020;16.720;2023-05-08T14:15:43;5.37;;;3.60;;
41514;SDS011;27247;48.020;16.720;2023-05-08T14:19:53;9.17;;;3.90;;
41514;SDS011;27247;48.020;16.720;2023-05-08T14:24:03;4.93;;;3.80;;
41514;SDS011;27247;48.020;16.720;2023-05-08T14:28:14;4.95;;;4.10;;
41514;SDS011;27247;48.020;16.720;2023-05-08T14:32:24;4.10;;;3.60;;
41514;SDS011;27247;48.020;16.720;2023-05-08T14:36:35;4.53;;;3.17;;
41514;SDS011;27247;48.020;16.720;2023-05-08T14:40:48;4.70;;;2.97;;
41514;SDS011;27247;48.020;16.720;2023-05-08T14:44:59;4.07;;;3.40;;
41514;SDS011;27247;48.020;16.720;2023-05-08T14:49:09;3.70;;;2.90;;
41514;SDS011;27247;48.020;16.720;2023-05-08T14:53:19;6.95;;;3.40;;
41514;SDS011;27247;48.020;16.720;2023-05-08T14:57:30;5.07;;;3.30;;
41514;SDS011;27247;48.020;16.720;2023-05-08T15:01:40;4.10;;;3.47;;
41514;SDS011;27247;48.020;16.720;2023-05-08T15:05:52;5.82;;;3.55;;
41514;SDS011;27247;48.020;16.720;2023-05-08T15:10:02;5.67;;;3.03;;
41514;SDS011;27247;48.020;16.720;2023-05-08T15:14:13;4.10;;;3.53;;
41514;SDS011;27247;48.020;16.720;2023-05-08T15:18:23;4.60;;;3.38;;
41514;SDS011;27247;48.020;16.720;2023-05-08T15:22:37;6.90;;;3.30;;
41514;SDS011;27247;48.020;16.720;2023-05-08T15:26:47;4.80;;;2.83;;
41514;SDS011;27247;48.020;16.720;2023-05-08T15:30:57;13.57;;;3.33;;
41514;SDS011;27247;48.020;16.720;2023-05-08T15:35:08;7.00;;;3.30;;
41514;SDS011;27247;48.020;16.720;2023-05-08T15:39:18;5.35;;;3.30;;
41514;SDS011;27247;48.020;16.720;2023-05-08T15:43:29;4.50;;;3.23;;
41514;SDS011;27247;48.020;16.720;2023-05-08T15:47:39;5.63;;;3.83;;
41514;SDS011;27247;48.020;16.720;2023-05-08T15:51:50;4.40;;;3.67;;
41514;SDS011;27247;48.020;16.720;2023-05-08T15:56:00;3.85;;;3.42;;
41514;SDS011;27247;48.020;16.720;2023-05-08T16:00:11;3.03;;;2.70;;
41514;SDS011;27247;48.020;16.720;2023-05-08T16:04:22;3.50;;;3.20;;
41514;SDS011;27247;48.020;16.720;2023-05-08T16:08:32;5.72;;;2.60;;
41514;SDS011;27247;48.020;16.720;2023-05-08T16:12:43;8.65;;;3.28;;
41514;SDS011;27247;48.020;16.720;2023-05-08T16:16:53;4.05;;;2.83;;
41514;SDS011;27247;48.020;16.720;2023-05-08T16:21:10;3.07;;;2.87;;
41514;SDS011;27247;48.020;16.720;2023-05-08T16:25:22;4.25;;;2.58;;
41514;SDS011;27247;48.020;16.720;2023-05-08T16:29:33;4.20;;;2.78;;
41514;SDS011;27247;48.020;16.720;2023-05-08T16:33:43;3.83;;;2.80;;
41514;SDS011;27247;48.020;16.720;2023-05-08T16:37:53;3.97;;;2.70;;
41514;SDS011;27247;48.020;16.720;2023-05-08T16:42:04;4.95;;;3.13;;
41514;SDS011;27247;48.020;16.720;2023-05-08T16:46:16;3.03;;;2.70;;
41514;SDS011;27247;48.020;16.720;2023-05-08T16:50:26;3.23;;;2.93;;
41514;SDS011;27247;48.020;16.720;2023-05-08T16:54:36;3.80;;;2.63;;
41514;SDS011;27247;48.020;16.720;2023-05-08T16:58:47;21.75;;;3.92;;
41514;SDS011;27247;48.020;16.720;2023-05-08T17:02:57;5.68;;;3.40;;
41514;SDS011;27247;48.020;16.720;2023-05-08T17:07:07;4.00;;;3.20;;
41514;SDS011;27247;48.020;16.720;2023-05-08T17:11:18;3.90;;;2.67;;
41514;SDS011;27247;48.020;16.720;2023-05-08T17:15:28;5.13;;;3.67;;
41514;SDS011;27247;48.020;16.720;2023-05-08T17:19:38;3.97;;;3.07;;
41514;SDS011;27247;48.020;16.720;2023-05-08T17:23:49;16.88;;;3.83;;
41514;SDS011;27247;48.020;16.720;2023-05-08T17:27:59;5.18;;;3.70;;
41514;SDS011;27247;48.020;16.720;2023-05-08T17:32:10;5.60;;;3.53;;
41514;SDS011;27247;48.020;16.720;2023-05-08T17:36:21;4.80;;;3.65;;
41514;SDS011;27247;48.020;16.720;2023-05-08T17:40:31;4.82;;;3.78;;
41514;SDS011;27247;48.020;16.720;2023-05-08T17:44:41;3.97;;;3.57;;
41514;SDS011;27247;48.020;16.720;2023-05-08T17:48:52;4.33;;;3.23;;
41514;SDS011;27247;48.020;16.720;2023-05-08T17:53:02;4.63;;;3.50;;
41514;SDS011;27247;48.020;16.720;2023-05-08T17:57:12;5.43;;;4.00;;
41514;SDS011;27247;48.020;16.720;2023-05-08T18:01:22;6.27;;;4.60;;
41514;SDS011;27247;48.020;16.720;2023-05-08T18:05:34;14.82;;;4.32;;
41514;SDS011;27247;48.020;16.720;2023-05-08T18:09:46;17.52;;;3.58;;
41514;SDS011;27247;48.020;16.720;2023-05-08T18:13:56;16.30;;;4.23;;
41514;SDS011;27247;48.020;16.720;2023-05-08T18:18:07;11.70;;;3.78;;
41514;SDS011;27247;48.020;16.720;2023-05-08T18:22:17;10.75;;;3.95;;
41514;SDS011;27247;48.020;16.720;2023-05-08T18:26:27;5.67;;;3.93;;
41514;SDS011;27247;48.020;16.720;2023-05-08T18:30:38;5.45;;;3.92;;
41514;SDS011;27247;48.020;16.720;2023-05-08T18:34:49;5.50;;;4.25;;
41514;SDS011;27247;48.020;16.720;2023-05-08T18:38:59;6.47;;;3.20;;
41514;SDS011;27247;48.020;16.720;2023-05-08T18:43:10;3.35;;;3.05;;
41514;SDS011;27247;48.020;16.720;2023-05-08T18:47:20;8.48;;;3.72;;
41514;SDS011;27247;48.020;16.720;2023-05-08T18:51:31;5.70;;;4.18;;
41514;SDS011;27247;48.020;16.720;2023-05-08T18:55:41;6.23;;;3.87;;
41514;SDS011;27247;48.020;16.720;2023-05-08T18:59:51;6.20;;;3.70;;
41514;SDS011;27247;48.020;16.720;2023-05-08T19:04:02;7.57;;;3.80;;
41514;SDS011;27247;48.020;16.720;2023-05-08T19:08:13;4.45;;;3.38;;
41514;SDS011;27247;48.020;16.720;2023-05-08T19:12:24;8.38;;;4.40;;
41514;SDS011;27247;48.020;16.720;2023-05-08T19:16:35;7.50;;;4.05;;
41514;SDS011;27247;48.020;16.720;2023-05-08T19:20:45;5.13;;;3.80;;
41514;SDS011;27247;48.020;16.720;2023-05-08T19:24:56;5.30;;;3.87;;
41514;SDS011;27247;48.020;16.720;2023-05-08T19:29:06;5.15;;;3.13;;
41514;SDS011;27247;48.020;16.720;2023-05-08T19:33:16;7.55;;;4.00;;
41514;SDS011;27247;48.020;16.720;2023-05-08T19:37:30;5.00;;;3.72;;
41514;SDS011;27247;48.020;16.720;2023-05-08T19:41:40;5.25;;;3.72;;
41514;SDS011;27247;48.020;16.720;2023-05-08T19:45:52;6.28;;;3.63;;
41514;SDS011;27247;48.020;16.720;2023-05-08T19:50:04;6.05;;;4.50;;
41514;SDS011;27247;48.020;16.720;2023-05-08T19:54:16;7.43;;;3.85;;
41514;SDS011;27247;48.020;16.720;2023-05-08T19:58:26;9.00;;;3.83;;
41514;SDS011;27247;48.020;16.720;2023-05-08T20:02:37;7.65;;;3.78;;
41514;SDS011;27247;48.020;16.720;2023-05-08T20:06:47;7.13;;;4.38;;
41514;SDS011;27247;48.020;16.720;2023-05-08T20:10:57;4.67;;;3.60;;
41514;SDS011;27247;48.020;16.720;2023-05-08T20:15:11;5.53;;;4.50;;
41514;SDS011;27247;48.020;16.720;2023-05-08T20:19:21;9.80;;;5.22;;
41514;SDS011;27247;48.020;16.720;2023-05-08T20:23:31;5.67;;;4.07;;
41514;SDS011;27247;48.020;16.720;2023-05-08T20:27:42;10.60;;;4.18;;
41514;SDS011;27247;48.020;16.720;2023-05-08T20:31:52;5.37;;;4.27;;
41514;SDS011;27247;48.020;16.720;2023-05-08T20:36:03;5.82;;;4.22;;
41514;SDS011;27247;48.020;16.720;2023-05-08T20:40:13;7.45;;;4.78;;
41514;SDS011;27247;48.020;16.720;2023-05-08T20:44:24;5.47;;;3.83;;
41514;SDS011;27247;48.020;16.720;2023-05-08T20:48:34;9.23;;;4.22;;
41514;SDS011;27247;48.020;16.720;2023-05-08T20:52:45;7.05;;;4.05;;
41514;SDS011;27247;48.020;16.720;2023-05-08T20:56:55;8.03;;;4.70;;
41514;SDS011;27247;48.020;16.720;2023-05-08T21:01:06;6.93;;;4.88;;
41514;SDS011;27247;48.020;16.720;2023-05-08T21:05:17;9.57;;;4.63;;
41514;SDS011;27247;48.020;16.720;2023-05-08T21:09:28;8.13;;;4.57;;
41514;SDS011;27247;48.020;16.720;2023-05-08T21:13:38;8.85;;;4.85;;
41514;SDS011;27247;48.020;16.720;2023-05-08T21:17:48;9.07;;;5.13;;
41514;SDS011;27247;48.020;16.720;2023-05-08T21:21:59;9.60;;;4.95;;
41514;SDS011;27247;48.020;16.720;2023-05-08T21:26:10;5.47;;;4.20;;
41514;SDS011;27247;48.020;16.720;2023-05-08T21:30:21;8.10;;;5.05;;
41514;SDS011;27247;48.020;16.720;2023-05-08T21:34:31;9.23;;;5.13;;
41514;SDS011;27247;48.020;16.720;2023-05-08T21:38:41;9.97;;;5.40;;
41514;SDS011;27247;48.020;16.720;2023-05-08T21:42:52;8.67;;;5.07;;
41514;SDS011;27247;48.020;16.720;2023-05-08T21:47:02;7.53;;;4.80;;
41514;SDS011;27247;48.020;16.720;2023-05-08T21:51:12;9.03;;;5.50;;
41514;SDS011;27247;48.020;16.720;2023-05-08T21:55:23;10.77;;;6.22;;
41514;SDS011;27247;48.020;16.720;2023-05-08T21:59:33;10.68;;;6.03;;
41514;SDS011;27247;48.020;16.720;2023-05-08T22:03:43;7.67;;;5.60;;
41514;SDS011;27247;48.020;16.720;2023-05-08T22:07:54;8.10;;;5.50;;
41514;SDS011;27247;48.020;16.720;2023-05-08T22:12:04;11.17;;;5.93;;
41514;SDS011;27247;48.020;16.720;2023-05-08T22:16:15;10.32;;;5.85;;
41514;SDS011;27247;48.020;16.720;2023-05-08T22:20:26;7.97;;;5.53;;
41514;SDS011;27247;48.020;16.720;2023-05-08T22:24:36;8.73;;;5.47;;
41514;SDS011;27247;48.020;16.720;2023-05-08T22:28:46;9.70;;;5.93;;
41514;SDS011;27247;48.020;16.720;2023-05-08T22:32:57;9.23;;;5.00;;
41514;SDS011;27247;48.020;16.720;2023-05-08T22:37:08;7.57;;;5.18;;
41514;SDS011;27247;48.020;16.720;2023-05-08T22:41:18;8.47;;;5.60;;
41514;SDS011;27247;48.020;16.720;2023-05-08T22:45:29;12.45;;;5.68;;
41514;SDS011;27247;48.020;16.720;2023-05-08T22:49:41;12.15;;;6.13;;
41514;SDS011;27247;48.020;16.720;2023-05-08T22:53:51;11.10;;;5.32;;
41514;SDS011;27247;48.020;16.720;2023-05-08T22:58:02;9.25;;;6.20;;
41514;SDS011;27247;48.020;16.720;2023-05-08T23:02:13;7.20;;;5.05;;
41514;SDS011;27247;48.020;16.720;2023-05-08T23:06:23;8.73;;;5.20;;
41514;SDS011;27247;48.020;16.720;2023-05-08T23:10:33;9.37;;;5.40;;
41514;SDS011;27247;48.020;16.720;2023-05-08T23:14:44;7.65;;;5.72;;
41514;SDS011;27247;48.020;16.720;2023-05-08T23:18:54;9.70;;;5.88;;
41514;SDS011;27247;48.020;16.720;2023-05-08T23:23:05;12.10;;;6.45;;
41514;SDS011;27247;48.020;16.720;2023-05-08T23:27:16;11.98;;;5.88;;
41514;SDS011;27247;48.020;16.720;2023-05-08T23:31:26;7.18;;;5.05;;
41514;SDS011;27247;48.020;16.720;2023-05-08T23:35:36;9.70;;;6.47;;
41514;SDS011;27247;48.020;16.720;2023-05-08T23:39:47;7.47;;;5.83;;
41514;SDS011;27247;48.020;16.720;2023-05-08T23:43:57;9.57;;;5.60;;
41514;SDS011;27247;48.020;16.720;2023-05-08T23:48:07;9.27;;;6.03;;
41514;SDS011;27247;48.020;16.720;2023-05-08T23:52:18;9.93;;;6.22;;
41514;SDS011;27247;48.020;16.720;2023-05-08T23:56:29;12.82;;;6.68;;
